Time;durP1;ratioP1;P1;durP2;ratioP2;P2;SDS_P1;SDS_P2;PMS_P1;PMS_P2;Temp;Humidity;BMP_temperature;BMP_pressure;BME280_temperature;BME280_humidity;BME280_pressure;Samples;Min_cycle;Max_cycle;Signal;HPM_P1;HPM_P2
2024/03/23 00:01:39;;;;;;;32.70;16.50;;;;;;;9.75;92.39;99936.56;111374;1206;139815;-68
2024/03/23 00:04:04;;;;;;;29.20;15.20;;;;;;;9.75;92.44;99932.11;111609;1212;99378;-68
2024/03/23 00:06:30;;;;;;;28.10;15.00;;;;;;;9.76;92.37;99932.06;111480;1206;98906;-70
2024/03/23 00:08:56;;;;;;;30.40;16.20;;;;;;;9.77;92.43;99935.80;111415;1212;139782;-70
2024/03/23 00:11:21;;;;;;;29.90;15.20;;;;;;;9.74;92.31;99938.24;111504;1206;99010;-70
2024/03/23 00:13:47;;;;;;;33.10;15.90;;;;;;;9.73;92.47;99934.20;111374;1207;138658;-70
2024/03/23 00:16:12;;;;;;;29.50;15.90;;;;;;;9.74;92.55;99932.34;111603;1210;98916;-70
2024/03/23 00:18:40;;;;;;;32.10;16.20;;;;;;;9.75;92.49;99934.30;111481;1212;97569;-71
2024/03/23 00:21:05;;;;;;;31.50;16.50;;;;;;;9.75;92.70;99930.35;111433;1210;140134;-70
2024/03/23 00:23:31;;;;;;;31.90;16.80;;;;;;;9.74;92.57;99928.98;111539;1206;98981;-68
2024/03/23 00:25:56;;;;;;;35.90;17.50;;;;;;;9.73;92.58;99924.93;111421;1206;139123;-68
2024/03/23 00:28:21;;;;;;;30.30;16.30;;;;;;;9.73;92.70;99926.70;111507;1206;99553;-69
2024/03/23 00:30:47;;;;;;;28.70;15.90;;;;;;;9.74;92.72;99921.13;111526;1206;99025;-68
2024/03/23 00:33:12;;;;;;;28.60;16.20;;;;;;;9.74;92.77;99917.89;111421;1212;138693;-68
2024/03/23 00:35:37;;;;;;;35.90;16.80;;;;;;;9.73;92.73;99913.30;111576;1206;98879;-69
2024/03/23 00:38:02;;;;;;;31.20;16.20;;;;;;;9.71;92.73;99912.89;111404;1206;138763;-68
2024/03/23 00:40:28;;;;;;;33.90;17.30;;;;;;;9.68;92.73;99916.08;111528;1212;98968;-68
2024/03/23 00:42:53;;;;;;;38.60;17.10;;;;;;;9.63;92.82;99904.01;111547;1206;98997;-68
2024/03/23 00:45:18;;;;;;;28.70;15.70;;;;;;;9.64;92.90;99900.61;111445;1212;138541;-69
2024/03/23 00:47:44;;;;;;;38.60;18.00;;;;;;;9.62;92.90;99893.89;111553;1206;98951;-69
2024/03/23 00:50:09;;;;;;;33.10;16.30;;;;;;;9.62;93.10;99884.27;111430;1208;138856;-69
2024/03/23 00:52:34;;;;;;;33.50;18.10;;;;;;;9.67;93.13;99884.58;111518;1212;100554;-69
2024/03/23 00:55:00;;;;;;;30.00;16.50;;;;;;;9.68;93.14;99880.05;111511;1206;98954;-69
2024/03/23 00:57:25;;;;;;;34.20;17.60;;;;;;;9.68;93.15;99883.09;111435;1212;138957;-69
2024/03/23 00:59:50;;;;;;;33.80;16.90;;;;;;;9.68;93.18;99884.14;111567;1212;98940;-68
2024/03/23 01:02:15;;;;;;;30.20;17.00;;;;;;;9.67;93.16;99881.84;111374;1206;138964;-69
2024/03/23 01:04:40;;;;;;;32.00;17.00;;;;;;;9.68;93.23;99872.02;111454;1211;99137;-69
2024/03/23 01:07:06;;;;;;;33.70;17.00;;;;;;;9.71;93.31;99872.05;111518;1206;98950;-69
2024/03/23 01:09:31;;;;;;;37.10;17.60;;;;;;;9.72;93.40;99862.72;111369;1212;138600;-69
2024/03/23 01:11:56;;;;;;;33.70;18.70;;;;;;;9.71;93.30;99861.35;111522;1206;98959;-69
2024/03/23 01:14:22;;;;;;;36.70;18.60;;;;;;;9.71;93.46;99863.49;111384;1206;139530;-69
2024/03/23 01:16:47;;;;;;;33.50;18.00;;;;;;;9.73;93.53;99861.39;111506;1212;99011;-68
2024/03/23 01:19:13;;;;;;;38.70;18.90;;;;;;;9.74;93.56;99853.11;111364;1206;139655;-71
2024/03/23 01:21:38;;;;;;;38.30;19.60;;;;;;;9.76;93.57;99845.36;111439;1212;98940;-69
2024/03/23 01:24:03;;;;;;;40.70;19.80;;;;;;;9.77;93.64;99839.95;111537;1206;99010;-68
2024/03/23 01:26:28;;;;;;;40.10;19.50;;;;;;;9.77;93.50;99844.41;111366;1206;138615;-68
2024/03/23 01:28:54;;;;;;;41.30;19.70;;;;;;;9.78;93.63;99844.21;111465;1212;98936;-68
2024/03/23 01:31:19;;;;;;;36.20;19.10;;;;;;;9.76;93.65;99840.17;111373;1207;138958;-68
2024/03/23 01:33:44;;;;;;;31.40;17.00;;;;;;;9.76;93.65;99837.16;111538;1206;99077;-68
2024/03/23 01:36:09;;;;;;;33.20;18.00;;;;;;;9.75;93.61;99838.27;111498;1211;99045;-69
2024/03/23 01:38:34;;;;;;;33.00;16.80;;;;;;;9.77;93.75;99836.02;111468;1206;138969;-68
2024/03/23 01:40:59;;;;;;;35.30;18.40;;;;;;;9.78;93.86;99833.86;111459;1212;98220;-68
2024/03/23 01:43:26;;;;;;;35.70;18.10;;;;;;;9.79;93.82;99828.30;111422;1206;139491;-69
2024/03/23 01:45:53;;;;;;;35.40;18.40;;;;;;;9.81;93.96;99831.18;111480;1212;98848;-68
2024/03/23 01:48:19;;;;;;;32.40;17.10;;;;;;;9.84;94.01;99826.05;111481;1212;97898;-68
2024/03/23 01:50:44;;;;;;;35.80;17.40;;;;;;;9.84;93.96;99824.23;111379;1210;139064;-69
2024/03/23 01:53:11;;;;;;;36.00;17.60;;;;;;;9.83;93.93;99821.99;111523;1212;98941;-68
2024/03/23 01:55:36;;;;;;;31.50;17.50;;;;;;;9.82;94.10;99813.99;111343;1212;139816;-68
2024/03/23 01:58:01;;;;;;;33.50;17.70;;;;;;;9.84;94.04;99810.52;111450;1212;99062;-68
2024/03/23 02:00:27;;;;;;;34.80;17.30;;;;;;;9.83;94.04;99804.52;111560;1206;98936;-68
2024/03/23 02:02:53;;;;;;;38.00;17.70;;;;;;;9.83;94.16;99807.18;111344;1210;138487;-68
2024/03/23 02:05:18;;;;;;;30.80;16.70;;;;;;;9.85;94.21;99801.55;111397;1206;99029;-68
2024/03/23 02:07:43;;;;;;;38.00;19.40;;;;;;;9.86;94.20;99799.15;111421;1206;138738;-68
2024/03/23 02:10:13;;;;;;;34.20;17.80;;;;;;;9.85;94.18;99792.45;111495;1210;98949;-68
2024/03/23 02:12:38;;;;;;;38.50;19.30;;;;;;;9.85;94.23;99787.43;111469;1206;107532;-68
2024/03/23 02:15:05;;;;;;;43.50;21.00;;;;;;;9.86;94.33;99786.16;111365;1212;139733;-68
2024/03/23 02:17:34;;;;;;;40.50;20.30;;;;;;;9.87;94.39;99784.64;111526;1210;99037;-68
2024/03/23 02:20:01;;;;;;;40.60;20.00;;;;;;;9.88;94.42;99779.25;111334;1209;138800;-68
2024/03/23 02:22:39;;;;;;;37.20;20.60;;;;;;;9.91;94.54;99779.45;111542;1210;98998;-68
2024/03/23 02:25:05;;;;;;;38.90;19.20;;;;;;;9.92;94.53;99779.17;111500;1206;107121;-68
2024/03/23 02:27:31;;;;;;;45.70;22.80;;;;;;;9.94;94.65;99779.11;111409;1206;138761;-68
2024/03/23 02:29:56;;;;;;;36.20;19.50;;;;;;;9.96;94.64;99773.83;111556;1206;98948;-68
2024/03/23 02:32:21;;;;;;;39.40;19.90;;;;;;;9.98;94.51;99774.95;111392;1210;138728;-68
2024/03/23 02:34:46;;;;;;;35.50;19.80;;;;;;;9.96;94.60;99773.45;111409;1212;99063;-68
2024/03/23 02:37:11;;;;;;;46.00;20.50;;;;;;;9.96;94.65;99769.71;111520;1206;97802;-68
2024/03/23 02:39:39;;;;;;;35.60;18.80;;;;;;;9.95;94.55;99770.47;111381;1210;138948;-68
2024/03/23 02:42:04;;;;;;;37.00;18.90;;;;;;;9.94;94.63;99766.41;111503;1206;98938;-68
2024/03/23 02:44:30;;;;;;;36.40;19.70;;;;;;;9.94;94.72;99755.70;111466;1212;139627;-68
2024/03/23 02:46:55;;;;;;;39.20;21.00;;;;;;;9.95;94.70;99754.58;111473;1211;98970;-68
2024/03/23 02:49:21;;;;;;;41.80;20.70;;;;;;;9.97;94.98;99750.70;111451;1206;139144;-68
2024/03/23 02:51:48;;;;;;;40.10;21.20;;;;;;;9.97;94.82;99753.05;111429;1212;107452;-68
2024/03/23 02:54:13;;;;;;;38.50;20.30;;;;;;;9.97;94.88;99750.88;111600;1209;99064;-68
2024/03/23 02:56:40;;;;;;;38.70;20.60;;;;;;;9.96;94.78;99749.15;111340;1212;139313;-68
2024/03/23 02:59:05;;;;;;;39.20;19.60;;;;;;;9.95;94.84;99750.45;111645;1212;98942;-68
2024/03/23 03:01:31;;;;;;;35.30;18.80;;;;;;;9.95;94.88;99743.34;111418;1206;138905;-68
2024/03/23 03:03:56;;;;;;;36.20;19.80;;;;;;;9.95;94.98;99738.52;111468;1211;98930;-68
2024/03/23 03:06:25;;;;;;;34.30;19.00;;;;;;;9.92;94.81;99737.05;111601;1209;97489;-68
2024/03/23 03:08:50;;;;;;;39.40;20.20;;;;;;;9.89;94.82;99730.27;111526;1210;139675;-68
2024/03/23 03:11:15;;;;;;;37.70;18.10;;;;;;;9.89;95.01;99729.61;111501;1212;98924;-68
2024/03/23 03:13:40;;;;;;;37.10;20.10;;;;;;;9.90;95.00;99724.89;111445;1211;138813;-68
2024/03/23 03:16:09;;;;;;;40.30;19.40;;;;;;;9.91;95.04;99718.61;111527;1206;98975;-68
2024/03/23 03:18:35;;;;;;;35.50;19.80;;;;;;;9.92;95.03;99714.98;111505;1206;98961;-68
2024/03/23 03:21:00;;;;;;;35.40;19.30;;;;;;;9.92;95.18;99712.13;111391;1211;139119;-69
2024/03/23 03:23:25;;;;;;;33.90;18.20;;;;;;;9.92;95.07;99707.31;111603;1206;98958;-68
2024/03/23 03:25:51;;;;;;;35.90;19.40;;;;;;;9.90;95.13;99712.05;111316;1209;139592;-68
2024/03/23 03:28:16;;;;;;;37.00;18.60;;;;;;;9.88;95.09;99708.74;111552;1206;99015;-68
2024/03/23 03:30:41;;;;;;;39.70;19.40;;;;;;;9.90;95.17;99701.36;111410;1206;98914;-68
2024/03/23 03:33:06;;;;;;;41.50;20.90;;;;;;;9.91;95.34;99694.85;111505;1209;138994;-68
2024/03/23 03:35:32;;;;;;;41.10;21.70;;;;;;;9.90;95.20;99687.60;111526;1211;99407;-68
2024/03/23 03:37:57;;;;;;;40.70;21.00;;;;;;;9.88;95.19;99688.77;111319;1211;138561;-68
2024/03/23 03:40:22;;;;;;;40.40;21.40;;;;;;;9.88;95.32;99679.70;111530;1206;99026;-68
2024/03/23 03:42:49;;;;;;;37.50;19.70;;;;;;;9.87;95.29;99675.83;111448;1210;98952;-68
2024/03/23 03:45:15;;;;;;;39.50;20.30;;;;;;;9.86;95.27;99684.60;111355;1206;138538;-68
2024/03/23 03:47:40;;;;;;;40.50;21.80;;;;;;;9.87;95.29;99688.13;111504;1210;99013;-68
2024/03/23 03:50:06;;;;;;;35.90;19.30;;;;;;;9.88;95.42;99690.75;111392;1209;138661;-68
2024/03/23 03:52:31;;;;;;;35.40;18.30;;;;;;;9.89;95.47;99687.11;111504;1209;98562;-71
2024/03/23 03:55:05;;;;;;;37.50;18.90;;;;;;;9.88;95.41;99693.39;111526;1206;98984;-68
2024/03/23 03:57:30;;;;;;;36.50;18.80;;;;;;;9.88;95.43;99693.05;111439;1212;138598;-68
2024/03/23 03:59:56;;;;;;;35.30;18.90;;;;;;;9.86;95.33;99693.16;111531;1206;99039;-68
2024/03/23 04:02:21;;;;;;;38.10;18.60;;;;;;;9.83;95.39;99691.21;111459;1206;138465;-68
2024/03/23 04:04:47;;;;;;;34.70;18.80;;;;;;;9.81;95.43;99695.42;111475;1210;99000;-68
2024/03/23 04:07:12;;;;;;;34.60;19.30;;;;;;;9.80;95.51;99689.63;111600;1206;98971;-68
2024/03/23 04:09:37;;;;;;;35.80;18.30;;;;;;;9.80;95.49;99691.57;111601;1206;138443;-68
2024/03/23 04:12:03;;;;;;;31.20;18.70;;;;;;;9.79;95.63;99686.25;111490;1212;100038;-68
2024/03/23 04:14:28;;;;;;;33.80;19.40;;;;;;;9.80;95.68;99685.10;111450;1206;138662;-68
2024/03/23 04:16:55;;;;;;;34.10;18.90;;;;;;;9.83;95.74;99681.91;111499;1212;98959;-68
2024/03/23 04:19:20;;;;;;;30.30;17.90;;;;;;;9.84;95.70;99681.13;111415;1208;138852;-68
2024/03/23 04:21:45;;;;;;;30.30;17.10;;;;;;;9.84;95.67;99675.43;111686;1206;98942;-68
2024/03/23 04:24:10;;;;;;;29.70;17.80;;;;;;;9.85;95.84;99675.74;111559;1211;99064;-68
2024/03/23 04:26:42;;;;;;;37.00;19.30;;;;;;;9.85;95.76;99678.04;111539;1206;138647;-67
2024/03/23 04:29:08;;;;;;;26.60;13.10;;;;;;;9.86;95.79;99682.84;111539;1208;99405;-68
2024/03/23 04:31:34;;;;;;;17.20;8.10;;;;;;;9.87;95.74;99692.02;111419;1206;138658;-68
2024/03/23 04:34:00;;;;;;;12.00;4.70;;;;;;;9.89;95.76;99690.70;111601;1206;98962;-69
2024/03/23 04:36:25;;;;;;;9.10;4.30;;;;;;;9.87;95.65;99692.73;111539;1205;113151;-68
2024/03/23 04:38:52;;;;;;;7.30;3.00;;;;;;;9.82;95.28;99697.52;111413;1211;139453;-68
2024/03/23 04:41:18;;;;;;;6.30;2.80;;;;;;;9.69;95.27;99696.41;111520;1209;99112;-68
2024/03/23 04:43:43;;;;;;;8.40;3.10;;;;;;;9.65;95.31;99690.91;111375;1206;138315;-68
2024/03/23 04:46:09;;;;;;;11.30;3.20;;;;;;;9.62;95.24;99686.66;111519;1206;100089;-68
2024/03/23 04:48:34;;;;;;;8.90;3.20;;;;;;;9.53;94.98;99680.22;111532;1208;98931;-68
2024/03/23 04:50:59;;;;;;;7.80;2.90;;;;;;;9.47;95.15;99674.63;111341;1206;138705;-68
2024/03/23 04:53:28;;;;;;;11.10;3.70;;;;;;;9.44;95.13;99664.27;111615;1205;98772;-68
2024/03/23 04:55:54;;;;;;;10.10;2.70;;;;;;;9.38;95.05;99652.80;111448;1206;139081;-68
2024/03/23 04:58:19;;;;;;;17.10;3.20;;;;;;;9.35;95.12;99647.81;111538;1206;101393;-68
2024/03/23 05:00:45;;;;;;;7.00;2.30;;;;;;;9.33;95.10;99635.95;111613;1206;99386;-68
2024/03/23 05:03:10;;;;;;;9.50;2.80;;;;;;;9.31;95.08;99624.84;111447;1206;138239;-68
2024/03/23 05:05:35;;;;;;;7.10;2.10;;;;;;;9.27;95.08;99623.63;111513;1209;99061;-68
2024/03/23 05:08:00;;;;;;;13.80;2.90;;;;;;;9.25;94.99;99628.60;111483;1206;138782;-68
2024/03/23 05:10:25;;;;;;;12.60;2.70;;;;;;;9.21;94.93;99622.03;111522;1206;99372;-68
2024/03/23 05:12:51;;;;;;;10.70;3.00;;;;;;;9.18;94.86;99620.38;111551;1211;99032;-68
2024/03/23 05:15:16;;;;;;;9.40;2.40;;;;;;;9.15;94.95;99626.81;111351;1206;138688;-68
2024/03/23 05:17:42;;;;;;;9.80;2.60;;;;;;;9.12;94.77;99627.68;111527;1206;98936;-68
2024/03/23 05:20:09;;;;;;;10.50;2.60;;;;;;;9.09;94.88;99626.40;111385;1206;138323;-68
2024/03/23 05:22:36;;;;;;;17.20;3.90;;;;;;;9.06;94.90;99631.73;111496;1206;99442;-68
2024/03/23 05:25:04;;;;;;;15.20;4.50;;;;;;;9.06;94.93;99631.39;111457;1206;99055;-68
2024/03/23 05:27:31;;;;;;;17.10;4.00;;;;;;;9.05;94.83;99618.23;111370;1212;138466;-70
2024/03/23 05:29:56;;;;;;;12.90;3.70;;;;;;;9.03;94.77;99615.17;111512;1210;98954;-68
2024/03/23 05:32:22;;;;;;;18.50;3.60;;;;;;;9.05;94.98;99614.70;111466;1206;138405;-68
2024/03/23 05:34:47;;;;;;;15.80;3.60;;;;;;;9.02;94.74;99611.98;111490;1212;107457;-68
2024/03/23 05:37:12;;;;;;;21.60;4.80;;;;;;;9.00;94.80;99611.20;111503;1211;99051;-68
2024/03/23 05:39:39;;;;;;;17.90;3.70;;;;;;;9.02;94.91;99608.65;111434;1208;138339;-70
2024/03/23 05:42:04;;;;;;;22.70;3.90;;;;;;;9.07;95.01;99607.45;111514;1210;99422;-68
2024/03/23 05:44:31;;;;;;;16.30;3.50;;;;;;;9.08;94.82;99615.23;111367;1206;138874;-68
2024/03/23 05:46:56;;;;;;;16.40;3.00;;;;;;;9.08;94.90;99613.98;111565;1206;102622;-70
2024/03/23 05:49:22;;;;;;;22.60;3.60;;;;;;;9.06;94.64;99614.78;111431;1209;138659;-67
2024/03/23 05:51:47;;;;;;;14.20;3.40;;;;;;;9.04;94.58;99614.73;111445;1206;98942;-68
2024/03/23 05:54:12;;;;;;;14.40;3.30;;;;;;;9.01;94.68;99618.27;111547;1211;99057;-68
2024/03/23 05:56:38;;;;;;;16.00;3.40;;;;;;;8.99;94.57;99615.36;111319;1206;138965;-70
2024/03/23 05:59:03;;;;;;;14.40;3.50;;;;;;;8.97;94.56;99615.46;111598;1206;98944;-70
2024/03/23 06:01:32;;;;;;;20.60;4.40;;;;;;;8.97;94.62;99616.16;111476;1209;138687;-70
2024/03/23 06:03:57;;;;;;;14.60;3.80;;;;;;;8.92;94.58;99605.73;111485;1211;97552;-68
2024/03/23 06:06:22;;;;;;;14.60;3.40;;;;;;;8.96;94.59;99606.81;111582;1206;99125;-68
2024/03/23 06:08:48;;;;;;;14.20;3.40;;;;;;;8.95;94.41;99608.96;111441;1206;138299;-68
2024/03/23 06:11:13;;;;;;;13.70;3.50;;;;;;;8.92;94.43;99603.64;111520;1211;98951;-68
2024/03/23 06:13:38;;;;;;;14.90;3.00;;;;;;;8.92;94.53;99599.70;111431;1211;138529;-68
2024/03/23 06:16:05;;;;;;;19.80;4.90;;;;;;;8.91;94.35;99602.28;111548;1206;99039;-68
2024/03/23 06:18:30;;;;;;;12.30;3.20;;;;;;;8.88;94.40;99602.43;111522;1210;99092;-68
2024/03/23 06:20:55;;;;;;;15.40;4.00;;;;;;;8.85;94.34;99600.08;111435;1210;138613;-68
2024/03/23 06:23:21;;;;;;;15.80;3.60;;;;;;;8.85;94.41;99602.77;111536;1209;99071;-68
2024/03/23 06:25:47;;;;;;;20.90;3.70;;;;;;;8.86;94.42;99601.65;111421;1211;138435;-68
2024/03/23 06:28:12;;;;;;;14.40;3.60;;;;;;;8.86;94.31;99601.84;111589;1206;106543;-68
2024/03/23 06:30:37;;;;;;;23.10;4.30;;;;;;;8.85;94.43;99595.83;111421;1206;99672;-68
2024/03/23 06:33:03;;;;;;;23.40;4.30;;;;;;;8.85;94.32;99593.68;111458;1206;138511;-68
2024/03/23 06:35:28;;;;;;;25.00;4.30;;;;;;;8.85;94.39;99585.86;111516;1206;98958;-68
2024/03/23 06:37:53;;;;;;;19.30;3.80;;;;;;;8.84;94.34;99585.71;111429;1211;138507;-68
2024/03/23 06:40:18;;;;;;;21.80;4.00;;;;;;;8.82;94.23;99584.59;111568;1206;98942;-68
2024/03/23 06:42:43;;;;;;;18.80;3.30;;;;;;;8.80;94.21;99583.06;111577;1206;99016;-68
2024/03/23 06:45:09;;;;;;;16.30;5.00;;;;;;;8.78;94.29;99581.17;111393;1211;138339;-67
2024/03/23 06:47:34;;;;;;;18.20;4.80;;;;;;;8.78;94.26;99582.64;111499;1206;100407;-68
2024/03/23 06:50:01;;;;;;;24.40;4.60;;;;;;;8.78;94.23;99577.99;111480;1206;138743;-69
2024/03/23 06:52:28;;;;;;;16.70;3.40;;;;;;;8.78;94.22;99572.11;111547;1211;99457;-68
2024/03/23 06:54:53;;;;;;;17.00;4.10;;;;;;;8.78;94.34;99562.15;111520;1206;97741;-68
2024/03/23 06:57:18;;;;;;;22.40;4.10;;;;;;;8.79;94.22;99549.80;111496;1211;140235;-69
2024/03/23 06:59:43;;;;;;;20.30;4.00;;;;;;;8.79;94.27;99544.84;111449;1205;98952;-68
2024/03/23 07:02:08;;;;;;;21.60;4.70;;;;;;;8.78;94.22;99538.10;111516;1206;138451;-68
2024/03/23 07:04:34;;;;;;;17.00;4.90;;;;;;;8.79;94.23;99539.30;111496;1206;98959;-68
2024/03/23 07:07:01;;;;;;;14.70;3.90;;;;;;;8.78;94.15;99537.02;111474;1206;98939;-68
2024/03/23 07:09:27;;;;;;;19.50;4.80;;;;;;;8.79;94.29;99540.88;111349;1211;139337;-68
2024/03/23 07:11:57;;;;;;;23.80;4.80;;;;;;;8.78;94.24;99546.08;111552;1206;98952;-68
2024/03/23 07:14:25;;;;;;;22.80;4.20;;;;;;;8.80;94.23;99548.33;111408;1206;139022;-68
2024/03/23 07:16:51;;;;;;;23.10;4.60;;;;;;;8.79;94.10;99545.91;111489;1211;99898;-68
2024/03/23 07:19:17;;;;;;;17.40;4.00;;;;;;;8.77;94.08;99540.27;111427;1211;98951;-68
2024/03/23 07:21:43;;;;;;;18.40;4.10;;;;;;;8.77;94.15;99528.02;111510;1210;138684;-67
2024/03/23 07:24:09;;;;;;;20.10;3.60;;;;;;;8.78;94.17;99526.00;111810;1209;98967;-67
2024/03/23 07:26:34;;;;;;;25.60;4.50;;;;;;;8.78;94.18;99507.45;111458;1206;138588;-67
2024/03/23 07:28:59;;;;;;;24.10;5.00;;;;;;;8.78;94.11;99495.56;111614;1211;98893;-67
2024/03/23 07:31:25;;;;;;;25.50;5.00;;;;;;;8.78;94.19;99486.23;111423;1206;140153;-67
2024/03/23 07:33:51;;;;;;;24.50;4.10;;;;;;;8.78;94.12;99467.02;111423;1221;99035;-67
2024/03/23 07:36:16;;;;;;;20.50;4.70;;;;;;;8.80;94.23;99495.77;111711;1206;99426;-67
2024/03/23 07:38:45;;;;;;;21.30;5.80;;;;;;;8.82;94.10;99514.02;111467;1206;138478;-68
2024/03/23 07:41:13;;;;;;;23.80;4.80;;;;;;;8.77;94.02;99527.63;111611;1209;99376;-68
2024/03/23 07:43:40;;;;;;;15.80;3.30;;;;;;;8.77;94.05;99535.67;111442;1209;138584;-68
2024/03/23 07:46:05;;;;;;;25.40;4.30;;;;;;;8.78;94.11;99527.04;111614;1211;99317;-68
2024/03/23 07:48:31;;;;;;;14.80;3.50;;;;;;;8.82;94.13;99528.84;111701;1205;99156;-67
2024/03/23 07:51:02;;;;;;;16.80;4.00;;;;;;;8.83;94.14;99526.64;111434;1206;138354;-67
2024/03/23 07:53:29;;;;;;;28.60;4.70;;;;;;;8.84;94.08;99518.73;111609;1210;99016;-68
2024/03/23 07:56:00;;;;;;;22.70;4.40;;;;;;;8.86;94.08;99497.98;111498;1206;138795;-68
2024/03/23 07:58:27;;;;;;;21.90;3.20;;;;;;;8.90;94.15;99483.30;111686;1209;112386;-67
2024/03/23 08:00:54;;;;;;;16.20;4.60;;;;;;;8.96;94.07;99483.53;111569;1210;98969;-68
2024/03/23 08:03:19;;;;;;;18.90;4.10;;;;;;;9.00;94.12;99483.66;111480;1210;138551;-67
2024/03/23 08:05:44;;;;;;;17.90;5.50;;;;;;;9.03;94.07;99480.27;111637;1206;99092;-66
2024/03/23 08:08:10;;;;;;;20.50;4.30;;;;;;;9.06;94.15;99480.44;111513;1206;138513;-67
2024/03/23 08:10:46;;;;;;;24.80;4.90;;;;;;;9.08;94.19;99473.17;111585;1206;99441;-66
2024/03/23 08:13:11;;;;;;;22.60;5.00;;;;;;;9.09;93.98;99457.08;111545;1211;108490;-67
2024/03/23 08:15:37;;;;;;;25.80;4.80;;;;;;;9.09;93.99;99422.55;111451;1206;139041;-67
2024/03/23 08:18:03;;;;;;;27.20;4.80;;;;;;;9.12;94.14;99408.30;111686;1206;97589;-67
2024/03/23 08:20:28;;;;;;;17.80;4.70;;;;;;;9.15;94.05;99412.79;111520;1206;139338;-67
2024/03/23 08:22:53;;;;;;;14.00;4.00;;;;;;;9.15;93.95;99419.70;111605;1210;98997;-67
2024/03/23 08:25:19;;;;;;;17.70;4.30;;;;;;;9.16;93.97;99421.61;111710;1206;97834;-67
2024/03/23 08:27:45;;;;;;;21.10;4.20;;;;;;;9.16;93.94;99432.15;111528;1206;138191;-67
2024/03/23 08:30:10;;;;;;;19.80;4.30;;;;;;;9.15;93.95;99435.41;111955;1206;98951;-67
2024/03/23 08:32:36;;;;;;;15.80;3.80;;;;;;;9.14;93.86;99430.46;111518;1206;138850;-67
2024/03/23 08:35:01;;;;;;;29.20;4.60;;;;;;;9.18;93.97;99423.67;111539;1206;97535;-67
2024/03/23 08:37:27;;;;;;;20.10;4.90;;;;;;;9.24;94.12;99420.27;111456;1206;140330;-68
2024/03/23 08:39:52;;;;;;;25.20;5.10;;;;;;;9.27;93.97;99416.89;111478;1206;98961;-69
2024/03/23 08:42:18;;;;;;;17.70;4.90;;;;;;;9.27;93.89;99424.19;111504;1206;98541;-67
2024/03/23 08:44:46;;;;;;;17.50;4.90;;;;;;;9.26;93.88;99432.61;111375;1207;138403;-68
2024/03/23 08:47:11;;;;;;;15.90;4.80;;;;;;;9.27;93.93;99421.17;111543;1210;99321;-67
2024/03/23 08:49:36;;;;;;;10.70;4.30;;;;;;;9.32;94.14;99408.92;111383;1206;138745;-66
2024/03/23 08:52:02;;;;;;;20.90;4.90;;;;;;;9.39;94.15;99405.27;111453;1206;99417;-67
2024/03/23 08:54:29;;;;;;;18.40;4.80;;;;;;;9.47;94.15;99392.73;111465;1206;98995;-68
2024/03/23 08:56:54;;;;;;;17.10;4.30;;;;;;;9.57;94.21;99377.86;111387;1206;138424;-67
2024/03/23 08:59:20;;;;;;;16.00;4.00;;;;;;;9.65;94.22;99369.68;111544;1211;99026;-66
2024/03/23 09:01:45;;;;;;;14.30;4.30;;;;;;;9.70;94.12;99366.52;111424;1207;139041;-70
2024/03/23 09:04:10;;;;;;;15.90;5.60;;;;;;;9.69;93.94;99373.91;111600;1206;99041;-70
2024/03/23 09:06:35;;;;;;;12.00;3.40;;;;;;;9.65;93.89;99371.45;111525;1206;107102;-70
2024/03/23 09:09:00;;;;;;;21.50;3.40;;;;;;;9.63;93.69;99373.77;111163;1212;138801;-67
2024/03/23 09:11:26;;;;;;;16.60;3.60;;;;;;;9.61;93.87;99368.16;111637;1206;98953;-69
2024/03/23 09:13:51;;;;;;;21.00;4.50;;;;;;;9.63;93.90;99361.98;111349;1206;138779;-70
2024/03/23 09:16:16;;;;;;;15.20;4.40;;;;;;;9.64;93.84;99362.81;111591;1209;98974;-70
2024/03/23 09:18:41;;;;;;;18.00;4.20;;;;;;;9.64;93.79;99362.98;111476;1206;98903;-70
2024/03/23 09:21:13;;;;;;;17.30;4.50;;;;;;;9.63;93.75;99370.55;111462;1211;138655;-68
2024/03/23 09:23:38;;;;;;;24.00;5.00;;;;;;;9.60;93.74;99370.39;111489;1211;107341;-68
2024/03/23 09:26:08;;;;;;;13.90;4.50;;;;;;;9.58;93.75;99363.71;111395;1206;138741;-67
2024/03/23 09:28:34;;;;;;;18.30;4.20;;;;;;;9.55;93.67;99361.02;111458;1206;99028;-69
2024/03/23 09:31:07;;;;;;;22.40;6.20;;;;;;;9.52;93.54;99351.57;111465;1211;97818;-69
2024/03/23 09:33:34;;;;;;;17.60;5.60;;;;;;;9.46;93.37;99353.90;111311;1206;138500;-70
2024/03/23 09:36:07;;;;;;;11.80;5.50;;;;;;;9.40;93.41;99349.96;111422;1207;97496;-70
2024/03/23 09:38:33;;;;;;;17.50;5.30;;;;;;;9.37;93.41;99347.11;111355;1206;138485;-70
2024/03/23 09:41:06;;;;;;;18.70;4.70;;;;;;;9.35;93.43;99340.48;111440;1210;99009;-69
2024/03/23 09:43:31;;;;;;;13.40;4.50;;;;;;;9.35;93.55;99338.89;111309;1211;138397;-71
2024/03/23 09:46:01;;;;;;;15.30;4.50;;;;;;;9.33;93.46;99330.77;111504;1209;99009;-70
2024/03/23 09:48:32;;;;;;;17.00;5.20;;;;;;;9.30;93.41;99327.20;111460;1212;101111;-71
2024/03/23 09:50:58;;;;;;;18.30;5.40;;;;;;;9.28;93.32;99323.05;111332;1211;139073;-70
2024/03/23 09:53:23;;;;;;;17.40;5.10;;;;;;;9.28;93.45;99323.63;111456;1206;100265;-69
2024/03/23 09:55:48;;;;;;;16.90;5.70;;;;;;;9.25;93.33;99324.11;111453;1207;139117;-67
2024/03/23 09:58:19;;;;;;;16.30;5.10;;;;;;;9.24;93.37;99319.92;111503;1206;99085;-69
2024/03/23 10:00:45;;;;;;;19.60;6.20;;;;;;;9.25;93.40;99318.10;111423;1208;99667;-70
2024/03/23 10:03:11;;;;;;;16.60;4.50;;;;;;;9.25;93.40;99311.32;111452;1209;142954;-72
2024/03/23 10:05:37;;;;;;;17.50;4.70;;;;;;;9.27;93.46;99313.14;111619;1206;98993;-71
2024/03/23 10:08:19;;;;;;;19.50;5.10;;;;;;;9.25;93.29;99312.88;111426;1206;139092;-70
2024/03/23 10:10:46;;;;;;;12.00;3.50;;;;;;;9.24;93.42;99310.27;111487;1207;99417;-69
2024/03/23 10:13:24;;;;;;;16.80;3.60;;;;;;;9.23;93.31;99307.29;111586;1208;98939;-69
2024/03/23 10:15:55;;;;;;;15.50;4.10;;;;;;;9.21;93.38;99307.23;111254;1206;139023;-71
2024/03/23 10:18:21;;;;;;;14.00;4.00;;;;;;;9.23;93.20;99305.36;111373;1211;99330;-69
2024/03/23 10:20:51;;;;;;;15.00;3.80;;;;;;;9.24;93.30;99298.00;111400;1206;138542;-71
2024/03/23 10:23:19;;;;;;;21.20;4.60;;;;;;;9.23;93.24;99291.66;111515;1211;99326;-69
2024/03/23 10:25:45;;;;;;;11.50;4.10;;;;;;;9.21;93.17;99291.39;111447;1206;143184;-74
2024/03/23 10:28:11;;;;;;;23.90;5.50;;;;;;;9.18;93.19;99291.39;111448;1211;99033;-71
2024/03/23 10:30:37;;;;;;;25.50;6.60;;;;;;;9.17;93.11;99292.55;111439;1211;99456;-74
2024/03/23 10:33:13;;;;;;;16.30;4.00;;;;;;;9.14;93.11;99295.75;111337;1206;138429;-70
2024/03/23 10:35:40;;;;;;;17.70;5.40;;;;;;;9.10;93.01;99300.08;111433;1209;97851;-71
2024/03/23 10:38:06;;;;;;;14.20;5.00;;;;;;;9.05;93.06;99295.19;111209;1207;138654;-71
2024/03/23 10:40:35;;;;;;;18.20;4.60;;;;;;;9.05;93.05;99291.83;111292;1207;99020;-72
2024/03/23 10:43:00;;;;;;;15.40;4.00;;;;;;;9.03;93.12;99276.76;111191;1211;99016;-72
2024/03/23 10:45:25;;;;;;;18.20;3.90;;;;;;;9.02;93.02;99273.47;111125;1206;140302;-72
2024/03/23 10:47:51;;;;;;;14.30;3.70;;;;;;;8.99;92.95;99272.41;111353;1211;100045;-71
2024/03/23 10:50:17;;;;;;;10.50;3.40;;;;;;;8.97;93.05;99270.20;111246;1207;139238;-70
2024/03/23 10:52:46;;;;;;;18.10;4.40;;;;;;;8.95;93.17;99264.94;111283;1211;98939;-72
2024/03/23 10:55:13;;;;;;;12.30;3.70;;;;;;;8.98;93.09;99257.69;111487;1211;98892;-70
2024/03/23 10:57:44;;;;;;;15.80;3.70;;;;;;;8.98;93.24;99246.96;111227;1210;140459;-72
2024/03/23 11:00:11;;;;;;;13.50;4.00;;;;;;;8.99;93.13;99251.70;111409;1209;99499;-71
2024/03/23 11:02:36;;;;;;;17.00;4.20;;;;;;;8.99;93.14;99258.15;111346;1211;138353;-70
2024/03/23 11:05:02;;;;;;;11.50;3.80;;;;;;;8.98;93.05;99253.91;111341;1210;98915;-70
2024/03/23 11:07:27;;;;;;;12.10;4.10;;;;;;;8.99;93.13;99244.27;111409;1211;112465;-72
2024/03/23 11:09:53;;;;;;;14.30;4.90;;;;;;;9.01;93.20;99252.65;111324;1206;138341;-73
2024/03/23 11:12:25;;;;;;;16.50;3.90;;;;;;;8.99;93.11;99244.92;111478;1209;99012;-72
2024/03/23 11:14:52;;;;;;;12.10;4.60;;;;;;;9.01;93.12;99229.14;111342;1211;138430;-72